Time;durP1;ratioP1;P1;durP2;ratioP2;P2;SDS_P1;SDS_P2;PMS_P1;PMS_P2;Temp;Humidity;BMP_temperature;BMP_pressure;BME280_temperature;BME280_humidity;BME280_pressure;Samples;Min_cycle;Max_cycle;Signal;HPM_P1;HPM_P2
2022/04/30 00:00:22;;;;;;;29.70;12.60;;;9.60;97.30;;;;;;4911668;29;20181;-91
2022/04/30 00:02:47;;;;;;;16.70;10.43;;;9.60;97.30;;;;;;4910445;29;20441;-90
2022/04/30 00:05:14;;;;;;;20.67;9.80;;;9.60;97.30;;;;;;4910470;29;20281;-91
2022/04/30 00:07:40;;;;;;;15.50;9.00;;;9.60;97.30;;;;;;4910334;29;20177;-91
2022/04/30 00:10:06;;;;;;;26.70;12.63;;;9.60;97.30;;;;;;4910359;29;21110;-91
2022/04/30 00:12:32;;;;;;;25.30;11.83;;;9.60;97.30;;;;;;4910194;29;20449;-91
2022/04/30 00:14:57;;;;;;;34.13;12.67;;;9.60;97.30;;;;;;4910801;29;20444;-91
2022/04/30 00:17:23;;;;;;;17.20;9.17;;;9.60;97.30;;;;;;4910045;29;20213;-91
2022/04/30 00:19:49;;;;;;;15.47;8.67;;;9.60;97.30;;;;;;4910405;29;20227;-91
2022/04/30 00:22:14;;;;;;;29.93;10.83;;;9.60;97.30;;;;;;4909754;28;20652;-90
2022/04/30 00:24:39;;;;;;;17.33;10.63;;;9.50;97.30;;;;;;4909833;29;20667;-91
2022/04/30 00:27:05;;;;;;;16.20;9.13;;;9.50;97.30;;;;;;4909907;29;20179;-91
2022/04/30 00:29:31;;;;;;;17.70;9.40;;;9.50;97.30;;;;;;4909818;29;20184;-91
2022/04/30 00:31:57;;;;;;;15.53;9.40;;;9.50;97.30;;;;;;4910338;28;20676;-91
2022/04/30 00:34:23;;;;;;;20.87;11.00;;;9.50;97.30;;;;;;4911079;29;20236;-91
2022/04/30 00:36:49;;;;;;;24.63;10.30;;;9.50;97.30;;;;;;4911200;29;20440;-91
2022/04/30 00:39:15;;;;;;;22.67;11.03;;;9.50;97.30;;;;;;4910011;29;20271;-90
2022/04/30 00:41:41;;;;;;;21.30;10.40;;;9.40;97.30;;;;;;4909911;29;20188;-91
2022/04/30 00:44:07;;;;;;;27.73;14.43;;;9.40;97.30;;;;;;4909838;29;20649;-91
2022/04/30 00:46:32;;;;;;;43.50;18.80;;;9.40;97.30;;;;;;4909903;29;20432;-91
2022/04/30 00:48:58;;;;;;;66.90;24.40;;;9.30;97.30;;;;;;4910001;29;20180;-91
2022/04/30 00:51:27;;;;;;;54.03;21.23;;;9.30;97.30;;;;;;4909962;29;20694;-91
2022/04/30 00:53:54;;;;;;;46.80;21.03;;;9.30;97.30;;;;;;4909655;29;20798;-91
2022/04/30 00:56:45;;;;;;;40.30;17.60;;;9.30;97.30;;;;;;4910428;29;20421;-91
2022/04/30 00:59:17;;;;;;;32.27;15.33;;;9.30;97.30;;;;;;4914518;29;20469;-90
2022/04/30 01:01:44;;;;;;;38.83;15.47;;;9.30;97.30;;;;;;4911269;29;20795;-91
2022/04/30 01:04:09;;;;;;;26.97;12.03;;;9.20;97.30;;;;;;4911628;29;20436;-90
2022/04/30 01:06:52;;;;;;;27.20;11.30;;;9.20;97.30;;;;;;4909788;29;20455;-91
2022/04/30 01:09:23;;;;;;;22.00;11.17;;;9.20;97.30;;;;;;4910002;29;20226;-91
2022/04/30 01:12:03;;;;;;;18.13;9.30;;;9.10;97.30;;;;;;4909388;29;20856;-90
2022/04/30 01:14:31;;;;;;;20.87;9.83;;;9.10;97.30;;;;;;4909067;28;20487;-90
2022/04/30 01:16:57;;;;;;;22.57;9.13;;;9.10;97.30;;;;;;4909458;29;20474;-91
2022/04/30 01:19:24;;;;;;;20.10;9.23;;;9.10;97.30;;;;;;4910324;29;20455;-91
2022/04/30 01:21:51;;;;;;;17.73;9.07;;;9.10;97.30;;;;;;4912575;29;20959;-91
2022/04/30 01:24:27;;;;;;;20.53;9.03;;;9.00;97.30;;;;;;4913916;29;20490;-90
2022/04/30 01:26:53;;;;;;;15.50;8.93;;;9.00;97.30;;;;;;4912596;29;20452;-92
2022/04/30 01:29:21;;;;;;;12.80;8.47;;;9.00;97.30;;;;;;4912490;29;20872;-90
2022/04/30 01:37:26;;;;;;;28.37;9.53;;;8.90;97.30;;;;;;4913928;29;20463;-90
2022/04/30 01:40:03;;;;;;;15.90;9.10;;;8.90;97.30;;;;;;4912330;28;20420;-91
2022/04/30 01:42:30;;;;;;;15.57;8.57;;;8.90;97.30;;;;;;4912907;28;20830;-90
2022/04/30 01:44:57;;;;;;;14.87;8.60;;;8.90;97.30;;;;;;4912570;29;20416;-90
2022/04/30 01:47:23;;;;;;;20.30;10.17;;;9.00;97.30;;;;;;4912658;28;20962;-90
2022/04/30 01:49:49;;;;;;;22.87;10.40;;;9.10;97.30;;;;;;4912800;29;20428;-92
2022/04/30 01:52:15;;;;;;;24.30;10.80;;;9.10;97.30;;;;;;4912419;29;20427;-90
2022/04/30 01:54:41;;;;;;;29.53;12.50;;;9.20;97.30;;;;;;4912575;29;20507;-90
2022/04/30 01:57:07;;;;;;;17.77;9.30;;;9.20;97.30;;;;;;4912635;29;20425;-90
2022/04/30 01:59:32;;;;;;;19.60;10.30;;;9.20;97.30;;;;;;4912594;29;21034;-91
2022/04/30 02:02:01;;;;;;;20.63;10.13;;;9.20;97.30;;;;;;4912549;29;20243;-90
2022/04/30 02:04:28;;;;;;;22.33;10.00;;;9.20;97.30;;;;;;4912489;29;20201;-90
2022/04/30 02:06:55;;;;;;;25.40;10.30;;;9.20;97.30;;;;;;4912146;29;20455;-90
2022/04/30 02:09:22;;;;;;;21.20;9.67;;;9.20;97.30;;;;;;4912285;29;20872;-90
2022/04/30 02:11:49;;;;;;;22.63;10.60;;;9.10;97.30;;;;;;4911920;28;20424;-89
2022/04/30 02:14:17;;;;;;;20.87;11.23;;;9.10;97.30;;;;;;4912273;29;20567;-91
2022/04/30 02:16:45;;;;;;;18.20;9.50;;;9.10;97.30;;;;;;4912257;29;20436;-90
2022/04/30 02:19:11;;;;;;;24.70;11.43;;;9.00;97.30;;;;;;4912223;28;20461;-90
2022/04/30 02:21:37;;;;;;;31.93;11.30;;;9.00;97.30;;;;;;4912369;29;20417;-90
2022/04/30 02:24:03;;;;;;;21.10;11.03;;;9.00;97.30;;;;;;4911369;29;20456;-89
2022/04/30 02:26:29;;;;;;;17.90;9.17;;;9.00;97.30;;;;;;4912300;29;20428;-91
2022/04/30 02:28:57;;;;;;;20.63;9.67;;;8.90;97.30;;;;;;4913288;29;20450;-90
2022/04/30 02:31:25;;;;;;;24.77;10.63;;;8.90;97.30;;;;;;4911441;28;21020;-88
2022/04/30 02:33:54;;;;;;;17.07;9.20;;;8.90;97.30;;;;;;4911798;29;20443;-90
2022/04/30 02:36:22;;;;;;;19.03;10.63;;;8.90;97.30;;;;;;4911759;28;20427;-90
2022/04/30 02:38:47;;;;;;;19.20;9.57;;;8.80;97.30;;;;;;4911901;29;20468;-90
2022/04/30 02:41:12;;;;;;;26.17;11.20;;;8.80;97.30;;;;;;4913264;28;20948;-90
2022/04/30 02:43:38;;;;;;;21.27;9.73;;;8.80;97.30;;;;;;4911486;29;20470;-91
2022/04/30 02:46:04;;;;;;;19.10;9.83;;;8.80;97.30;;;;;;4911984;28;20203;-90
2022/04/30 02:48:29;;;;;;;19.43;9.10;;;8.80;97.30;;;;;;4911542;29;20189;-90
2022/04/30 02:50:59;;;;;;;20.90;9.63;;;8.80;97.30;;;;;;4911644;28;20440;-90
2022/04/30 02:53:24;;;;;;;17.30;9.10;;;8.70;97.30;;;;;;4911874;29;20673;-90
2022/04/30 02:55:50;;;;;;;16.50;7.70;;;8.70;97.30;;;;;;4912760;29;20504;-90
2022/04/30 03:01:00;;;;;;;15.53;7.60;;;8.70;97.30;;;;;;4912810;29;20578;-90
2022/04/30 03:03:29;;;;;;;20.80;8.20;;;8.70;97.30;;;;;;4913163;29;20963;-90
2022/04/30 03:05:56;;;;;;;12.97;7.20;;;8.60;97.30;;;;;;4911604;29;20423;-90
2022/04/30 03:08:23;;;;;;;19.30;9.30;;;8.60;97.30;;;;;;4911279;29;21010;-91
2022/04/30 03:10:50;;;;;;;20.27;8.20;;;8.60;97.30;;;;;;4912701;29;20966;-90
2022/04/30 03:13:19;;;;;;;12.80;7.07;;;8.60;97.30;;;;;;4912114;28;20495;-90
2022/04/30 03:15:47;;;;;;;14.40;7.40;;;8.60;97.30;;;;;;4911323;29;20483;-90
2022/04/30 03:23:38;;;;;;;19.97;7.90;;;8.50;97.30;;;;;;4912407;29;20467;-91
2022/04/30 03:26:09;;;;;;;17.40;6.80;;;8.50;97.30;;;;;;4911221;29;20840;-90
2022/04/30 03:28:37;;;;;;;21.73;7.90;;;8.50;97.30;;;;;;4910897;29;20421;-90
2022/04/30 03:31:05;;;;;;;19.17;7.67;;;8.50;97.30;;;;;;4911508;29;20512;-90
2022/04/30 03:33:32;;;;;;;11.83;7.27;;;8.40;97.30;;;;;;4911216;29;20457;-89
2022/04/30 03:35:58;;;;;;;17.37;7.73;;;8.40;97.30;;;;;;4911370;29;20429;-90
2022/04/30 03:38:24;;;;;;;17.30;7.30;;;8.40;97.30;;;;;;4911098;29;20603;-89
2022/04/30 03:40:49;;;;;;;19.53;8.30;;;8.40;97.30;;;;;;4911490;28;20524;-90
2022/04/30 03:43:16;;;;;;;19.10;7.07;;;8.40;97.30;;;;;;4910268;28;20284;-90
2022/04/30 03:45:41;;;;;;;18.20;7.20;;;8.40;97.30;;;;;;4912069;29;20227;-90
2022/04/30 03:48:07;;;;;;;12.60;7.33;;;8.40;97.30;;;;;;4910870;29;20468;-91
2022/04/30 03:50:33;;;;;;;13.57;8.00;;;8.30;97.30;;;;;;4911034;28;20267;-90
2022/04/30 03:52:58;;;;;;;19.67;8.37;;;8.30;97.30;;;;;;4911919;29;21009;-90
2022/04/30 03:55:25;;;;;;;14.70;7.03;;;8.30;97.30;;;;;;4911133;28;20195;-90
2022/04/30 03:57:50;;;;;;;11.37;6.20;;;8.20;97.30;;;;;;4910433;28;20590;-90
2022/04/30 04:00:17;;;;;;;13.33;7.53;;;8.20;97.30;;;;;;4910588;28;20700;-90
2022/04/30 04:02:43;;;;;;;12.77;7.10;;;8.20;97.30;;;;;;4910678;28;20296;-90
2022/04/30 04:05:12;;;;;;;14.30;7.60;;;8.20;97.30;;;;;;4912003;29;20496;-90
2022/04/30 04:07:40;;;;;;;16.17;7.23;;;8.20;97.30;;;;;;4910447;28;20417;-90
2022/04/30 04:10:06;;;;;;;14.43;7.30;;;8.20;97.30;;;;;;4910275;28;20986;-90
2022/04/30 04:12:32;;;;;;;14.27;6.70;;;8.20;97.30;;;;;;4910577;28;20476;-90
2022/04/30 04:17:43;;;;;;;15.97;7.80;;;8.20;97.30;;;;;;4912838;29;20219;-90
2022/04/30 04:20:11;;;;;;;16.17;7.73;;;8.20;97.30;;;;;;4911287;28;20574;-90
2022/04/30 04:22:37;;;;;;;16.60;7.43;;;8.20;97.30;;;;;;4910137;28;20204;-90
2022/04/30 04:27:48;;;;;;;11.33;6.97;;;8.20;97.30;;;;;;4912830;29;20773;-90
2022/04/30 04:30:13;;;;;;;19.50;8.67;;;8.20;97.30;;;;;;4910095;29;20429;-90
2022/04/30 04:32:39;;;;;;;12.10;6.57;;;8.20;97.30;;;;;;4911547;29;20200;-90
2022/04/30 04:35:05;;;;;;;13.80;7.00;;;8.20;97.30;;;;;;4910140;28;20188;-91
2022/04/30 04:37:31;;;;;;;12.80;6.80;;;8.20;97.30;;;;;;4910185;28;20287;-90
2022/04/30 04:39:57;;;;;;;13.60;7.37;;;8.20;97.30;;;;;;4909814;29;20803;-91
2022/04/30 04:42:23;;;;;;;16.40;6.70;;;8.20;97.30;;;;;;4910141;28;20423;-90
2022/04/30 04:44:48;;;;;;;16.30;6.80;;;8.20;97.30;;;;;;4911121;28;20255;-90
2022/04/30 04:47:14;;;;;;;15.30;7.07;;;8.20;97.30;;;;;;4911144;29;20204;-90
2022/04/30 04:49:41;;;;;;;15.40;7.70;;;8.20;97.30;;;;;;4909790;28;20441;-90
2022/04/30 04:52:09;;;;;;;17.00;7.23;;;8.20;97.30;;;;;;4910159;29;20181;-91
2022/04/30 04:54:35;;;;;;;15.47;7.80;;;8.20;97.30;;;;;;4908340;29;20413;-90
2022/04/30 04:57:00;;;;;;;16.50;8.10;;;8.20;97.30;;;;;;4910140;29;20429;-91
2022/04/30 04:59:26;;;;;;;17.80;7.37;;;8.20;97.30;;;;;;4910276;28;20428;-90
2022/04/30 05:01:52;;;;;;;17.43;7.90;;;8.20;97.30;;;;;;4909885;28;20327;-90
2022/04/30 05:04:18;;;;;;;14.30;7.90;;;8.20;97.30;;;;;;4909731;29;20201;-90
2022/04/30 05:06:44;;;;;;;19.70;8.20;;;8.30;97.30;;;;;;4909789;29;20421;-91
2022/04/30 05:09:10;;;;;;;21.17;8.40;;;8.30;97.30;;;;;;4909987;28;20436;-90
2022/04/30 05:11:35;;;;;;;11.60;7.27;;;8.30;97.30;;;;;;4909812;28;20188;-90
2022/04/30 05:14:01;;;;;;;16.33;7.77;;;8.30;97.30;;;;;;4909376;28;20324;-90
2022/04/30 05:16:26;;;;;;;19.70;8.87;;;8.30;97.30;;;;;;4909440;28;20279;-90
2022/04/30 05:18:52;;;;;;;21.47;7.83;;;8.30;97.30;;;;;;4911160;28;20254;-90
2022/04/30 05:21:17;;;;;;;17.60;8.40;;;8.30;97.30;;;;;;4910356;28;20235;-90
2022/04/30 05:23:43;;;;;;;14.90;8.50;;;8.30;97.30;;;;;;4909751;28;20200;-90
2022/04/30 05:26:08;;;;;;;19.30;8.30;;;8.30;97.30;;;;;;4909511;28;20185;-90
2022/04/30 05:28:34;;;;;;;20.27;8.43;;;8.30;97.30;;;;;;4910792;28;20189;-89
2022/04/30 05:30:59;;;;;;;15.00;8.50;;;8.30;97.30;;;;;;4909598;28;20262;-89
2022/04/30 05:33:25;;;;;;;18.00;7.60;;;8.30;97.30;;;;;;4909119;28;20208;-90
2022/04/30 05:35:50;;;;;;;15.27;8.63;;;8.30;97.30;;;;;;4909195;28;20199;-90
2022/04/30 05:38:16;;;;;;;21.80;8.87;;;8.40;97.30;;;;;;4910686;28;20208;-91
2022/04/30 05:40:41;;;;;;;20.80;8.57;;;8.40;97.30;;;;;;4909623;29;20180;-91
2022/04/30 05:43:07;;;;;;;14.13;7.60;;;8.50;97.30;;;;;;4911163;29;20201;-91
2022/04/30 05:45:32;;;;;;;18.33;8.23;;;8.50;97.30;;;;;;4909374;28;20424;-90
2022/04/30 05:47:58;;;;;;;20.23;7.83;;;8.60;97.30;;;;;;4911087;29;20200;-91
2022/04/30 05:50:23;;;;;;;22.83;9.30;;;8.60;97.30;;;;;;4908978;28;20234;-91
2022/04/30 05:52:49;;;;;;;14.13;8.33;;;8.70;97.30;;;;;;4911505;28;20208;-91
2022/04/30 05:55:14;;;;;;;17.60;8.53;;;8.80;97.30;;;;;;4909557;28;20185;-90
2022/04/30 05:57:41;;;;;;;16.73;8.30;;;8.80;97.30;;;;;;4910627;28;20280;-90
2022/04/30 06:00:07;;;;;;;11.60;6.73;;;8.80;97.30;;;;;;4910064;29;20177;-90
2022/04/30 06:02:35;;;;;;;16.47;8.20;;;8.80;97.30;;;;;;4910213;28;20583;-90
2022/04/30 06:05:01;;;;;;;18.50;8.70;;;8.90;97.30;;;;;;4909458;29;20451;-90
2022/04/30 06:07:26;;;;;;;19.97;8.07;;;8.90;97.30;;;;;;4912946;29;20460;-92
2022/04/30 06:09:52;;;;;;;15.80;7.97;;;9.00;97.30;;;;;;4914619;29;20239;-91
2022/04/30 06:12:17;;;;;;;15.20;8.13;;;9.10;97.30;;;;;;4912197;28;20231;-91
2022/04/30 06:14:43;;;;;;;16.67;7.70;;;9.20;97.30;;;;;;4912368;28;20195;-91
2022/04/30 06:17:09;;;;;;;16.40;8.07;;;9.20;97.30;;;;;;4914725;28;20181;-91
2022/04/30 06:19:35;;;;;;;13.97;7.50;;;9.20;97.30;;;;;;4913077;29;20671;-90
2022/04/30 06:22:01;;;;;;;13.70;7.47;;;9.20;97.30;;;;;;4912073;29;20401;-91
2022/04/30 06:24:26;;;;;;;16.43;7.97;;;9.30;97.30;;;;;;4911704;29;20464;-92
2022/04/30 06:26:52;;;;;;;12.77;7.57;;;9.40;97.30;;;;;;4910958;28;20413;-91
2022/04/30 06:29:18;;;;;;;14.10;7.40;;;9.50;97.30;;;;;;4947259;28;20215;-90
2022/04/30 06:31:44;;;;;;;14.90;7.73;;;9.60;97.30;;;;;;4921071;28;20192;-92
2022/04/30 06:34:09;;;;;;;13.57;6.43;;;9.60;97.30;;;;;;5012128;28;20974;-92
2022/04/30 06:36:35;;;;;;;16.77;7.73;;;9.70;97.30;;;;;;4942073;28;20188;-92
2022/04/30 06:39:00;;;;;;;13.67;6.97;;;9.80;97.30;;;;;;5014972;28;20216;-91
2022/04/30 06:41:26;;;;;;;15.60;7.07;;;9.90;97.30;;;;;;5012218;28;20230;-92
2022/04/30 06:43:51;;;;;;;13.00;7.17;;;10.00;97.30;;;;;;5013139;28;20197;-91
2022/04/30 06:46:19;;;;;;;10.50;6.80;;;10.00;97.30;;;;;;4992255;28;20591;-89
2022/04/30 06:48:45;;;;;;;14.53;7.50;;;10.10;97.30;;;;;;4915906;28;20248;-91
2022/04/30 06:51:11;;;;;;;15.83;7.43;;;10.10;97.30;;;;;;4915335;28;20504;-91
2022/04/30 06:59:10;;;;;;;13.10;6.80;;;10.30;97.30;;;;;;4912281;29;20518;-91
2022/04/30 07:01:52;;;;;;;11.50;7.43;;;10.30;97.30;;;;;;4912007;28;20421;-92
2022/04/30 07:04:18;;;;;;;12.27;6.43;;;10.40;97.30;;;;;;4925323;28;20436;-91
2022/04/30 07:06:46;;;;;;;10.53;6.30;;;10.50;97.30;;;;;;4912212;28;20431;-91
2022/04/30 07:09:13;;;;;;;14.13;7.10;;;10.60;97.30;;;;;;4913544;28;20193;-92
2022/04/30 07:11:39;;;;;;;16.23;7.83;;;10.70;97.30;;;;;;4911968;29;20806;-92
2022/04/30 07:14:04;;;;;;;15.00;6.73;;;10.90;97.30;;;;;;4913650;28;20565;-92
2022/04/30 07:16:30;;;;;;;15.00;7.37;;;11.00;97.30;;;;;;4915775;28;20212;-91
2022/04/30 07:18:55;;;;;;;15.23;7.83;;;11.00;97.30;;;;;;4913510;28;20224;-91
2022/04/30 07:21:21;;;;;;;19.50;7.73;;;11.10;97.30;;;;;;4913692;28;20640;-92
2022/04/30 07:23:46;;;;;;;17.13;8.03;;;11.10;97.30;;;;;;4915129;28;20197;-92
2022/04/30 07:26:12;;;;;;;15.90;7.93;;;11.10;97.30;;;;;;4917202;28;20188;-91
2022/04/30 07:28:37;;;;;;;15.10;6.93;;;11.10;97.30;;;;;;4916975;28;20181;-91
2022/04/30 07:31:03;;;;;;;15.67;7.90;;;11.10;97.30;;;;;;4916737;28;20220;-91
2022/04/30 07:33:29;;;;;;;17.40;7.30;;;11.10;97.30;;;;;;4917511;29;20307;-91
2022/04/30 07:35:55;;;;;;;12.13;7.27;;;11.10;97.30;;;;;;4919248;29;20452;-92
2022/04/30 07:38:22;;;;;;;14.07;7.77;;;11.10;97.30;;;;;;4899425;29;21087;-91
2022/04/30 07:40:47;;;;;;;15.93;7.63;;;11.20;97.30;;;;;;4899347;29;20429;-92
2022/04/30 07:43:13;;;;;;;13.20;7.33;;;11.20;97.30;;;;;;4897540;29;20441;-91
2022/04/30 07:45:38;;;;;;;13.40;8.13;;;11.20;97.30;;;;;;4897356;29;20193;-92
2022/04/30 07:48:04;;;;;;;21.73;8.50;;;11.20;97.30;;;;;;4899231;29;20834;-91
2022/04/30 07:50:36;;;;;;;12.97;7.63;;;11.30;97.30;;;;;;4900446;29;20181;-92
2022/04/30 07:53:06;;;;;;;16.80;7.73;;;11.40;97.30;;;;;;4901830;29;20449;-91
2022/04/30 07:55:31;;;;;;;14.57;6.97;;;11.50;97.30;;;;;;4917376;29;20429;-92
2022/04/30 07:57:58;;;;;;;12.97;7.80;;;11.50;97.30;;;;;;4921441;29;20508;-92
2022/04/30 08:00:24;;;;;;;16.23;7.20;;;11.60;97.30;;;;;;4917505;29;20648;-91
2022/04/30 08:02:50;;;;;;;16.40;7.13;;;11.60;97.30;;;;;;4914368;29;20452;-92
2022/04/30 08:05:16;;;;;;;14.63;7.00;;;11.70;97.30;;;;;;4913868;29;20417;-93
2022/04/30 08:07:42;;;;;;;22.60;7.27;;;11.80;97.30;;;;;;4965906;28;20810;-92
2022/04/30 08:10:07;;;;;;;12.17;6.93;;;11.90;97.30;;;;;;5012774;28;20911;-92
2022/04/30 08:12:33;;;;;;;14.20;6.80;;;12.00;97.30;;;;;;5012839;28;20205;-92
2022/04/30 08:14:58;;;;;;;10.87;6.10;;;12.20;97.30;;;;;;4949443;28;20483;-92
2022/04/30 08:17:27;;;;;;;11.00;6.60;;;12.40;97.30;;;;;;4911153;28;20184;-93
2022/04/30 08:19:52;;;;;;;16.40;6.80;;;12.50;96.90;;;;;;4911579;28;20177;-92
2022/04/30 08:22:20;;;;;;;16.97;7.80;;;12.50;96.50;;;;;;4911265;29;21030;-92
2022/04/30 08:24:46;;;;;;;11.13;7.10;;;12.40;96.30;;;;;;4913049;28;20181;-92
2022/04/30 08:27:12;;;;;;;15.10;7.00;;;12.50;96.60;;;;;;4911692;28;20411;-92
2022/04/30 08:29:37;;;;;;;13.07;7.17;;;12.60;97.20;;;;;;4912328;28;20263;-93
2022/04/30 08:32:04;;;;;;;17.40;7.40;;;12.70;96.20;;;;;;4911824;28;20987;-93
2022/04/30 08:34:30;;;;;;;14.80;9.57;;;12.80;96.00;;;;;;4911381;28;20201;-92
2022/04/30 08:36:56;;;;;;;13.90;7.27;;;12.80;95.50;;;;;;4911272;29;20429;-92
2022/04/30 08:39:21;;;;;;;20.83;6.73;;;12.90;95.70;;;;;;4910672;28;20607;-92
2022/04/30 08:41:47;;;;;;;13.53;6.50;;;12.90;96.10;;;;;;4911342;28;20181;-92
2022/04/30 08:44:14;;;;;;;10.97;6.50;;;12.90;95.70;;;;;;4911905;29;20738;-92
2022/04/30 08:46:41;;;;;;;11.53;7.00;;;12.90;95.50;;;;;;4911146;29;20273;-92
2022/04/30 08:49:08;;;;;;;11.27;6.27;;;13.00;95.60;;;;;;4911843;29;20785;-92
2022/04/30 08:51:34;;;;;;;13.60;7.97;;;13.00;95.10;;;;;;4910966;29;20436;-93
2022/04/30 08:53:59;;;;;;;13.90;7.43;;;13.10;94.80;;;;;;4910445;29;20788;-92
2022/04/30 08:56:25;;;;;;;10.50;6.70;;;13.30;94.70;;;;;;4910795;28;20196;-92
2022/04/30 08:58:56;;;;;;;13.17;6.80;;;13.30;94.30;;;;;;4910335;28;20258;-92
2022/04/30 09:01:22;;;;;;;12.10;5.90;;;13.40;93.90;;;;;;4910796;29;20215;-90
2022/04/30 09:03:48;;;;;;;10.13;6.60;;;13.50;94.10;;;;;;4909811;29;20637;-90
2022/04/30 09:06:17;;;;;;;11.57;6.60;;;13.70;93.30;;;;;;4910442;28;20773;-90
2022/04/30 09:08:51;;;;;;;13.10;6.87;;;13.70;92.90;;;;;;4910463;29;20184;-90
2022/04/30 09:11:17;;;;;;;15.87;6.13;;;13.60;92.90;;;;;;4910556;29;20428;-89
2022/04/30 09:13:46;;;;;;;13.33;6.70;;;13.60;93.20;;;;;;4910226;28;20472;-90
2022/04/30 09:16:20;;;;;;;16.17;7.00;;;13.60;93.80;;;;;;4910003;29;20196;-89
2022/04/30 09:18:46;;;;;;;15.27;7.73;;;13.50;93.00;;;;;;4910273;29;21001;-90
2022/04/30 09:21:15;;;;;;;10.53;6.27;;;13.50;92.90;;;;;;4912227;29;20413;-90
2022/04/30 09:23:42;;;;;;;15.60;7.83;;;13.50;92.90;;;;;;4910098;29;20209;-90
2022/04/30 09:26:07;;;;;;;11.53;7.07;;;13.50;92.20;;;;;;4910516;29;20452;-90
2022/04/30 09:28:36;;;;;;;10.77;6.30;;;13.60;92.00;;;;;;4910408;28;20464;-90
2022/04/30 09:31:11;;;;;;;16.83;7.03;;;13.80;92.00;;;;;;4910371;29;20246;-90
2022/04/30 09:33:49;;;;;;;12.00;6.60;;;13.90;91.40;;;;;;4910306;29;20459;-90
2022/04/30 09:39:09;;;;;;;14.70;7.40;;;14.00;91.60;;;;;;4911530;29;20466;-90
2022/04/30 09:41:35;;;;;;;12.50;6.87;;;14.00;91.10;;;;;;4912243;29;20420;-90
2022/04/30 09:44:06;;;;;;;11.20;6.30;;;14.00;91.10;;;;;;4913173;28;20846;-90
2022/04/30 09:46:35;;;;;;;12.13;7.50;;;14.10;91.40;;;;;;4913279;28;20176;-90
2022/04/30 09:54:32;;;;;;;13.30;6.90;;;14.40;91.30;;;;;;4915205;29;20443;-90
2022/04/30 09:57:01;;;;;;;11.73;6.20;;;14.60;90.10;;;;;;4915407;29;20425;-91
2022/04/30 09:59:29;;;;;;;8.77;6.53;;;14.70;90.80;;;;;;4913107;28;20205;-90
2022/04/30 10:01:55;;;;;;;13.03;7.20;;;14.80;89.80;;;;;;4912856;28;20490;-90
2022/04/30 10:04:21;;;;;;;10.67;7.20;;;14.80;89.80;;;;;;4912701;29;20437;-90
2022/04/30 10:06:49;;;;;;;16.47;7.37;;;14.90;89.90;;;;;;4913015;28;20235;-90
2022/04/30 10:09:22;;;;;;;12.00;7.20;;;15.00;89.90;;;;;;4912639;28;20421;-91
2022/04/30 10:12:11;;;;;;;12.80;7.50;;;15.10;89.50;;;;;;4912744;28;20451;-90
2022/04/30 10:14:41;;;;;;;12.90;7.67;;;15.30;89.20;;;;;;4912503;28;20511;-90
2022/04/30 10:19:35;;;;;;;11.10;7.37;;;15.70;88.50;;;;;;4914362;29;20498;-90
2022/04/30 10:22:14;;;;;;;15.00;8.07;;;15.80;88.80;;;;;;4914822;29;20413;-90
2022/04/30 10:24:48;;;;;;;12.37;6.80;;;15.90;88.40;;;;;;4913159;29;20177;-90
2022/04/30 10:27:15;;;;;;;14.23;7.53;;;16.00;87.90;;;;;;4916723;29;20504;-90
2022/04/30 10:29:52;;;;;;;14.30;7.03;;;16.10;86.50;;;;;;4914213;28;20417;-90
2022/04/30 10:32:35;;;;;;;11.70;7.77;;;16.20;87.80;;;;;;4915288;29;20416;-90
2022/04/30 10:35:02;;;;;;;16.70;8.73;;;16.30;86.10;;;;;;4914222;28;20452;-90
2022/04/30 10:37:33;;;;;;;13.83;7.13;;;16.40;85.20;;;;;;4914408;28;20428;-90
2022/04/30 10:40:00;;;;;;;14.20;7.27;;;16.40;84.40;;;;;;4914471;29;20440;-90
2022/04/30 10:42:43;;;;;;;10.93;7.30;;;16.60;84.70;;;;;;4913145;29;20804;-90
2022/04/30 10:45:15;;;;;;;10.43;6.73;;;16.70;85.70;;;;;;4913325;29;20959;-91
2022/04/30 10:47:54;;;;;;;15.33;7.10;;;16.90;85.10;;;;;;4913425;29;20425;-90
2022/04/30 10:50:20;;;;;;;14.50;7.90;;;17.00;83.80;;;;;;4913833;29;20451;-91
2022/04/30 10:52:48;;;;;;;14.07;7.27;;;16.90;84.20;;;;;;4912096;28;20444;-90
2022/04/30 10:55:17;;;;;;;12.43;7.50;;;17.20;84.20;;;;;;4912617;29;20243;-91
2022/04/30 10:57:44;;;;;;;13.97;7.63;;;17.40;84.30;;;;;;4912539;29;20460;-91
2022/04/30 11:00:10;;;;;;;15.37;7.90;;;17.50;82.40;;;;;;4912721;29;20425;-90
2022/04/30 11:02:37;;;;;;;11.03;7.40;;;17.70;82.90;;;;;;4912993;28;20464;-91
2022/04/30 11:05:04;;;;;;;17.90;7.90;;;17.70;82.80;;;;;;4914002;29;20417;-90
2022/04/30 11:07:31;;;;;;;16.97;8.20;;;17.90;83.40;;;;;;4912553;29;20850;-91
2022/04/30 11:09:57;;;;;;;11.10;6.83;;;18.00;82.50;;;;;;4913517;29;20511;-91
2022/04/30 11:12:32;;;;;;;15.63;8.13;;;18.10;82.10;;;;;;4911549;29;20433;-91
2022/04/30 11:14:58;;;;;;;16.20;6.83;;;18.20;82.20;;;;;;4911553;29;20431;-90
2022/04/30 11:17:25;;;;;;;12.53;7.70;;;18.30;81.40;;;;;;4911495;29;20436;-91
2022/04/30 11:19:51;;;;;;;13.27;7.40;;;18.30;82.40;;;;;;4911997;29;20188;-91
2022/04/30 11:22:19;;;;;;;12.80;7.33;;;18.50;81.30;;;;;;4913620;29;20516;-91
2022/04/30 11:24:45;;;;;;;14.37;8.07;;;18.50;81.10;;;;;;4912359;29;20928;-91
2022/04/30 11:27:12;;;;;;;13.20;7.50;;;18.30;80.40;;;;;;4911382;28;20428;-91
2022/04/30 11:29:50;;;;;;;13.50;8.20;;;18.40;81.60;;;;;;4911233;29;20177;-91
2022/04/30 11:32:26;;;;;;;16.00;7.60;;;18.60;81.70;;;;;;4911563;29;20980;-90
2022/04/30 11:34:54;;;;;;;13.13;8.20;;;18.80;79.00;;;;;;4912978;29;20416;-90
2022/04/30 11:37:20;;;;;;;16.30;8.20;;;18.70;78.70;;;;;;4912710;29;20416;-90
2022/04/30 11:39:45;;;;;;;18.67;8.23;;;18.80;80.70;;;;;;4911489;28;20770;-91
2022/04/30 11:42:11;;;;;;;13.70;7.50;;;19.10;80.00;;;;;;4910896;29;20184;-91
2022/04/30 11:44:36;;;;;;;18.20;8.03;;;19.30;78.70;;;;;;4910954;28;20181;-91
2022/04/30 11:47:06;;;;;;;13.80;9.07;;;19.40;77.80;;;;;;4911069;28;20181;-91
2022/04/30 11:49:31;;;;;;;20.50;8.53;;;19.20;78.50;;;;;;4911140;29;20189;-91
2022/04/30 11:51:58;;;;;;;10.77;7.80;;;19.10;78.80;;;;;;4911021;28;20435;-91
2022/04/30 11:54:29;;;;;;;17.73;8.53;;;19.10;78.80;;;;;;4910452;28;20299;-91
2022/04/30 11:56:57;;;;;;;16.90;9.13;;;19.20;79.30;;;;;;4910811;28;20436;-91
2022/04/30 11:59:30;;;;;;;12.40;8.00;;;19.40;78.00;;;;;;4910706;28;20472;-90
2022/04/30 12:02:06;;;;;;;17.67;9.20;;;19.40;76.80;;;;;;4910459;29;21005;-92
2022/04/30 12:04:36;;;;;;;18.40;9.17;;;19.60;76.70;;;;;;4909552;28;20444;-91
2022/04/30 12:07:05;;;;;;;11.60;8.03;;;19.70;77.50;;;;;;4910472;28;20428;-90
2022/04/30 12:09:32;;;;;;;13.33;7.33;;;19.80;76.90;;;;;;4910406;28;20424;-90
2022/04/30 12:12:00;;;;;;;11.93;7.37;;;19.80;77.20;;;;;;4910819;28;20435;-90
2022/04/30 12:14:27;;;;;;;13.50;9.10;;;19.90;76.30;;;;;;4911201;28;20490;-90
2022/04/30 12:16:53;;;;;;;15.33;8.70;;;19.80;75.90;;;;;;4910143;28;20479;-90
2022/04/30 12:25:09;;;;;;;15.97;8.43;;;20.20;76.80;;;;;;4911371;29;20423;-90
2022/04/30 12:27:36;;;;;;;14.40;8.20;;;20.40;77.50;;;;;;4910098;28;20512;-90
2022/04/30 12:30:14;;;;;;;12.40;7.77;;;20.70;75.80;;;;;;4910127;29;20429;-90
2022/04/30 12:32:49;;;;;;;15.70;8.13;;;20.70;75.00;;;;;;4910243;28;20444;-90
2022/04/30 12:35:32;;;;;;;14.20;8.43;;;20.80;75.00;;;;;;4909760;28;20426;-91
2022/04/30 12:38:03;;;;;;;14.73;8.37;;;20.90;75.70;;;;;;4910890;28;20464;-90
2022/04/30 12:40:28;;;;;;;12.23;8.47;;;21.00;75.10;;;;;;4910332;29;20420;-90
2022/04/30 12:42:54;;;;;;;16.73;8.60;;;21.00;76.30;;;;;;4910438;29;20437;-90
2022/04/30 12:45:19;;;;;;;15.10;9.00;;;20.90;75.20;;;;;;4910074;28;20192;-90
2022/04/30 12:47:45;;;;;;;16.80;8.83;;;21.10;73.90;;;;;;4909756;28;20215;-91
2022/04/30 12:50:10;;;;;;;14.90;8.93;;;21.00;73.40;;;;;;4909966;28;20205;-91
2022/04/30 12:52:36;;;;;;;12.30;8.13;;;21.00;73.10;;;;;;4909977;28;20204;-91
2022/04/30 12:55:03;;;;;;;16.80;9.07;;;20.90;72.40;;;;;;4909813;28;20176;-90
2022/04/30 12:57:29;;;;;;;14.60;8.43;;;20.80;72.20;;;;;;4910243;29;20411;-90
2022/04/30 12:59:54;;;;;;;12.80;8.20;;;21.00;74.20;;;;;;4910241;28;20424;-90
2022/04/30 13:02:23;;;;;;;14.53;8.07;;;21.30;72.60;;;;;;4909907;28;20184;-91
2022/04/30 13:04:51;;;;;;;15.40;8.40;;;21.60;71.50;;;;;;4910846;29;20341;-90
2022/04/30 13:07:18;;;;;;;13.83;8.00;;;21.80;73.20;;;;;;4909684;29;20799;-90
2022/04/30 13:15:11;;;;;;;13.00;8.10;;;21.50;73.50;;;;;;4910029;29;20788;-90
2022/04/30 13:17:38;;;;;;;11.17;7.73;;;21.60;73.30;;;;;;4911543;28;20420;-90
2022/04/30 13:20:05;;;;;;;11.90;7.43;;;21.70;72.70;;;;;;4912959;29;20595;-91
2022/04/30 13:22:30;;;;;;;12.73;7.20;;;21.80;71.80;;;;;;4911326;29;20433;-91
2022/04/30 13:24:56;;;;;;;11.57;7.40;;;21.70;71.80;;;;;;4911444;29;20475;-90
2022/04/30 13:27:21;;;;;;;11.43;7.37;;;21.80;72.10;;;;;;4911506;28;20185;-90